Aeroporto :
LOGIN :

Iscrizione | Disclaimer

   EN    FR    IT 

 










Sommario :    VFR   VFR Marginale   IFR   IFR Intensivo   IFR Molto Intensivo
Visibilità : 
Base nubi : 
>= 8 km
>= 3000ft
5 / 8 km
1000 / 3000 ft
1500m / 5 km
500 / 1000 ft
800 / 1500m
200 / 500 ft
< 800m
< 200 ft
Simboli :   Temporali  Nebbia  Neve Forte  Precipitazioni Forti  Vento > 20 kt
SIGMETs :   Varie  Temporali  Ghiacco  Turbolenza  Onda orograficha  Ceneri Vulcaniche






- Altitudine del aeroporto : 598 ft
- Codice IATA : BQH


EGKB - Biggin Hill

ULTIMO METAR :
  • 221820Z 25016G26KT 220V290 9999 -RA SCT035 10/04 Q1021

METARs OBSOLETI :
  • 221750Z 27017G28KT 230V320 9999 BKN034 10/04 Q1021
  • 221720Z 25011KT 220V280 9999 -RA SCT030 09/06 Q1020
  • 221650Z 25012G22KT 9999 -RA SCT030 10/05 Q1020
  • 221620Z 26011KT 220V290 9999 SCT034 10/05 Q1020
  • 221550Z 26012KT 230V300 9999 SCT035 11/04 Q1019

TAF TAF EGKB
Valido dal 22 a 18 ore il 22 a 22 ore UTC


221651Z 2218/2222 25018G28KT 9999 SCT030
PROB30
TEMPO 2218/2222 6000 -RA BKN010



MetMap, La meteo Aeronautica in un colpo d'occhio ! - Copyright ORBIFLY Dicembre 2007 - Disclaimer

ORBIFLY MET'MAP TEAM :

Programmazione e sviluppo : Alexandra Zaïnal
Concezione : Baudouin d'Aumeries
Aiuto per la programmazione : Marc-Olivier Méhu
Supporto tecnico e logistico : Manuel Goepfert
Aiuto per la traduzione : Arnaldo La Scala

Contatto : metmap@orbifly.com




FONTI E CREDITI :

   NOAA